createdAt,value
2023-01-03T00:01:58.880Z,10.33
2023-01-03T00:04:26.929Z,12.93
2023-01-03T00:06:54.915Z,9.73
2023-01-03T00:09:23.617Z,7.57
2023-01-03T00:12:17.854Z,12.70
2023-01-03T00:14:45.759Z,20.93
2023-01-03T00:17:15.269Z,19.97
2023-01-03T00:19:44.109Z,20.40
2023-01-03T00:22:13.207Z,10.63
2023-01-03T00:24:41.249Z,8.97
2023-01-03T00:27:09.193Z,7.80
2023-01-03T00:29:37.147Z,7.60
2023-01-03T00:32:05.387Z,6.77
2023-01-03T00:34:34.663Z,7.67
2023-01-03T00:37:02.620Z,4.43
2023-01-03T00:39:30.486Z,3.97
2023-01-03T00:41:58.427Z,4.73
2023-01-03T00:44:26.444Z,4.50
2023-01-03T00:46:54.356Z,5.57
2023-01-03T00:49:22.289Z,6.27
2023-01-03T00:52:00.270Z,5.23
2023-01-03T00:54:40.612Z,5.10
2023-01-03T00:57:09.221Z,8.70
2023-01-03T00:59:40.451Z,6.03
2023-01-03T01:02:08.720Z,7.40
2023-01-03T01:04:36.714Z,3.80
2023-01-03T01:07:06.021Z,5.83
2023-01-03T01:09:34.920Z,3.43
2023-01-03T01:12:02.872Z,8.73
2023-01-03T01:14:33.310Z,6.93
2023-01-03T01:17:02.038Z,5.47
2023-01-03T01:19:32.328Z,3.17
2023-01-03T01:22:00.323Z,4.43
2023-01-03T01:24:29.600Z,3.73
2023-01-03T01:26:57.599Z,5.83
2023-01-03T01:29:25.496Z,5.33
2023-01-03T01:31:53.355Z,3.40
2023-01-03T01:34:21.346Z,5.70
2023-01-03T01:36:49.339Z,4.80
2023-01-03T01:39:18.384Z,4.23
2023-01-03T01:42:05.826Z,3.33
2023-01-03T01:44:54.173Z,4.73
2023-01-03T01:47:28.791Z,4.60
2023-01-03T01:50:01.092Z,4.87
2023-01-03T01:52:29.224Z,5.47
2023-01-03T01:54:57.254Z,5.73
2023-01-03T01:57:26.556Z,4.33
2023-01-03T01:59:54.504Z,4.97
2023-01-03T02:02:23.389Z,5.43
2023-01-03T02:04:55.306Z,5.63
2023-01-03T02:07:23.481Z,3.73
2023-01-03T02:09:53.657Z,4.70
2023-01-03T02:12:44.364Z,3.00
2023-01-03T02:15:17.997Z,10.07
2023-01-03T02:17:50.543Z,4.10
2023-01-03T02:20:33.759Z,3.70
2023-01-03T02:23:28.264Z,5.87
2023-01-03T02:26:19.269Z,2.83
2023-01-03T02:29:34.849Z,3.40
2023-01-03T02:32:05.333Z,4.80
2023-01-03T02:34:35.842Z,9.37
2023-01-03T02:37:08.486Z,3.33
2023-01-03T02:39:41.011Z,2.77
2023-01-03T02:42:29.038Z,5.03
2023-01-03T02:44:59.828Z,6.80
2023-01-03T02:47:29.198Z,4.57
2023-01-03T02:49:57.087Z,8.00
2023-01-03T02:52:26.913Z,2.63
2023-01-03T02:54:57.725Z,9.67
2023-01-03T02:57:27.269Z,6.67
2023-01-03T02:59:56.109Z,7.30
2023-01-03T03:02:25.218Z,3.83
2023-01-03T03:04:56.688Z,3.17
2023-01-03T03:07:26.152Z,2.00
2023-01-03T03:10:11.482Z,1.90
2023-01-03T03:12:57.328Z,5.00
2023-01-03T03:15:26.314Z,5.40
2023-01-03T03:17:55.607Z,3.10
2023-01-03T03:20:42.473Z,3.13
2023-01-03T03:23:29.087Z,5.50
2023-01-03T03:25:59.307Z,5.40
2023-01-03T03:28:36.170Z,1.60
2023-01-03T03:31:07.277Z,4.27
2023-01-03T03:33:36.884Z,5.57
2023-01-03T03:36:07.843Z,10.40
2023-01-03T03:38:37.486Z,8.33
2023-01-03T03:41:27.618Z,7.83
2023-01-03T03:44:16.120Z,4.53
2023-01-03T03:46:54.197Z,7.47
2023-01-03T03:49:40.803Z,3.93
2023-01-03T03:52:12.629Z,6.53
2023-01-03T03:54:41.174Z,12.60
2023-01-03T03:57:12.040Z,5.13
2023-01-03T03:59:40.257Z,6.13
2023-01-03T04:02:08.336Z,6.87
2023-01-03T04:04:37.703Z,10.10
2023-01-03T04:07:05.654Z,9.93
2023-01-03T04:09:34.909Z,9.70
2023-01-03T04:12:02.802Z,6.17
2023-01-03T04:14:30.972Z,5.87
2023-01-03T04:16:59.032Z,9.93
2023-01-03T04:19:27.112Z,7.13
2023-01-03T04:21:55.054Z,12.73
2023-01-03T04:24:23.263Z,11.10
2023-01-03T04:26:52.540Z,3.70
2023-01-03T04:29:20.448Z,6.27
2023-01-03T04:31:48.425Z,8.93
2023-01-03T04:34:16.364Z,8.07
2023-01-03T04:36:44.297Z,5.20
2023-01-03T04:39:12.294Z,5.60
2023-01-03T04:41:40.234Z,9.70
2023-01-03T04:44:09.242Z,6.53
2023-01-03T04:46:39.669Z,3.53
2023-01-03T04:49:08.756Z,6.13
2023-01-03T04:51:36.776Z,2.63
2023-01-03T04:54:05.045Z,5.10
2023-01-03T04:56:33.526Z,3.30
2023-01-03T04:59:01.548Z,7.73
2023-01-03T05:01:31.044Z,5.17
2023-01-03T05:03:59.927Z,12.60
2023-01-03T05:06:28.355Z,7.10
2023-01-03T05:08:56.316Z,8.27
2023-01-03T05:11:24.267Z,10.97
2023-01-03T05:13:52.145Z,7.30
2023-01-03T05:16:20.106Z,5.97
2023-01-03T05:18:53.493Z,10.00
2023-01-03T05:21:40.354Z,19.10
2023-01-03T05:24:27.747Z,12.20
2023-01-03T05:26:55.733Z,8.80
2023-01-03T05:29:23.841Z,7.63
2023-01-03T05:31:51.789Z,8.90
2023-01-03T05:34:21.184Z,6.37
2023-01-03T05:36:49.088Z,14.03
2023-01-03T05:39:17.039Z,9.53
2023-01-03T05:42:03.003Z,12.10
2023-01-03T05:44:31.926Z,12.37
2023-01-03T05:46:59.949Z,8.13
2023-01-03T05:49:29.220Z,10.33
2023-01-03T05:51:57.116Z,14.20
2023-01-03T05:54:25.007Z,5.80
2023-01-03T05:56:53.133Z,12.13
2023-01-03T05:59:22.831Z,13.90
2023-01-03T06:01:50.915Z,15.60
2023-01-03T06:04:19.105Z,15.73
2023-01-03T06:06:48.556Z,12.70
2023-01-03T06:09:16.645Z,16.53
2023-01-03T06:11:44.588Z,8.70
2023-01-03T06:14:12.547Z,10.20
2023-01-03T06:16:57.777Z,13.10
2023-01-03T06:19:25.754Z,13.27
2023-01-03T06:21:54.996Z,17.10
2023-01-03T06:24:22.905Z,12.00
2023-01-03T06:26:50.821Z,14.47
2023-01-03T06:29:18.865Z,16.13
2023-01-03T06:31:46.796Z,14.60
2023-01-03T06:34:15.027Z,9.23
2023-01-03T06:36:43.018Z,11.30
2023-01-03T06:39:12.360Z,7.97
2023-01-03T06:41:40.266Z,14.27
2023-01-03T06:44:08.191Z,12.93
2023-01-03T06:46:53.576Z,11.60
2023-01-03T06:49:42.351Z,7.97
2023-01-03T06:52:30.700Z,3.57
2023-01-03T06:55:00.052Z,7.40
2023-01-03T06:57:27.957Z,6.73
2023-01-03T06:59:55.959Z,10.23
2023-01-03T07:02:23.929Z,4.80
2023-01-03T07:04:52.515Z,6.50
2023-01-03T07:07:20.598Z,11.63
2023-01-03T07:09:48.779Z,6.17
2023-01-03T07:12:38.167Z,6.70
2023-01-03T07:15:06.873Z,5.93
2023-01-03T07:17:35.014Z,5.80
2023-01-03T07:20:03.179Z,5.63
2023-01-03T07:22:31.332Z,2.00
2023-01-03T07:24:59.310Z,8.83
2023-01-03T07:27:28.755Z,9.07
2023-01-03T07:29:57.549Z,12.47
2023-01-03T07:32:26.164Z,6.80
2023-01-03T07:34:54.224Z,7.60
2023-01-03T07:37:22.194Z,4.03
2023-01-03T07:39:50.140Z,5.53
2023-01-03T07:42:35.712Z,9.17
2023-01-03T07:45:06.377Z,9.67
2023-01-03T07:47:34.292Z,5.70
2023-01-03T07:50:02.205Z,8.00
2023-01-03T07:52:30.125Z,4.80
2023-01-03T07:54:58.139Z,9.63
2023-01-03T07:57:26.427Z,5.40
2023-01-03T07:59:54.414Z,4.97
2023-01-03T08:02:24.221Z,8.27
2023-01-03T08:04:52.439Z,5.47
2023-01-03T08:07:20.440Z,6.10
2023-01-03T08:10:05.798Z,2.20
2023-01-03T08:12:51.148Z,5.50
2023-01-03T08:15:19.108Z,7.17
2023-01-03T08:17:48.484Z,4.03
2023-01-03T08:20:16.710Z,6.80
2023-01-03T08:22:44.653Z,3.13
2023-01-03T08:25:12.869Z,6.97
2023-01-03T08:27:44.000Z,5.77
2023-01-03T08:30:16.223Z,4.57
2023-01-03T08:32:44.233Z,5.53
2023-01-03T08:35:13.484Z,7.97
2023-01-03T08:37:41.549Z,4.10
2023-01-03T08:40:10.668Z,5.57
2023-01-03T08:42:38.545Z,9.73
2023-01-03T08:45:08.253Z,5.70
2023-01-03T08:47:36.240Z,10.07
2023-01-03T08:50:05.076Z,9.97
2023-01-03T08:52:35.440Z,11.03
2023-01-03T08:55:03.642Z,14.67
2023-01-03T08:57:31.672Z,10.20
2023-01-03T08:59:59.602Z,7.03
2023-01-03T09:02:27.936Z,6.60
2023-01-03T09:04:56.182Z,12.83
2023-01-03T09:07:24.322Z,11.70
2023-01-03T09:09:53.901Z,13.40
2023-01-03T09:12:21.924Z,6.57
2023-01-03T09:14:49.802Z,7.90
2023-01-03T09:17:17.747Z,11.67
2023-01-03T09:19:45.688Z,7.30
2023-01-03T09:22:13.620Z,6.93
2023-01-03T09:24:41.617Z,12.93
2023-01-03T09:27:10.944Z,8.60
2023-01-03T09:29:38.967Z,10.03
2023-01-03T09:32:07.019Z,14.67
2023-01-03T09:34:37.640Z,10.93
2023-01-03T09:37:05.614Z,12.00
2023-01-03T09:39:33.816Z,7.97
2023-01-03T09:42:19.133Z,8.23
2023-01-03T09:44:48.761Z,8.03
2023-01-03T09:47:21.454Z,9.43
2023-01-03T09:50:18.880Z,10.13
2023-01-03T09:52:54.830Z,11.97
2023-01-03T09:55:44.304Z,10.50
2023-01-03T09:58:32.021Z,9.23
2023-01-03T10:01:24.606Z,16.20
2023-01-03T10:03:57.469Z,13.10
2023-01-03T10:06:32.431Z,9.47
2023-01-03T10:09:07.117Z,14.33
2023-01-03T10:11:39.828Z,11.70
2023-01-03T10:14:13.984Z,11.40
2023-01-03T10:16:50.568Z,8.03
2023-01-03T10:19:40.293Z,16.57
2023-01-03T10:22:10.036Z,11.53
2023-01-03T10:24:43.909Z,10.47
2023-01-03T10:27:15.669Z,16.67
2023-01-03T10:29:43.687Z,9.33
2023-01-03T10:32:30.183Z,6.57
2023-01-03T10:35:21.535Z,12.17
2023-01-03T10:37:52.109Z,9.53
2023-01-03T10:40:20.166Z,11.33
2023-01-03T10:42:49.535Z,11.83
2023-01-03T10:45:18.791Z,12.30
2023-01-03T10:47:49.751Z,14.03
2023-01-03T10:50:21.670Z,8.47
2023-01-03T10:52:57.946Z,19.00
2023-01-03T10:55:26.639Z,18.40
2023-01-03T10:58:01.698Z,13.27
2023-01-03T11:00:31.701Z,13.47
2023-01-03T11:03:16.577Z,12.00
2023-01-03T11:05:45.873Z,14.77
2023-01-03T11:08:23.530Z,19.40
2023-01-03T11:11:01.301Z,16.73
2023-01-03T11:13:32.642Z,15.23
2023-01-03T11:16:02.052Z,20.90
2023-01-03T11:18:31.686Z,28.00
2023-01-03T11:21:07.193Z,20.83
2023-01-03T11:24:02.250Z,14.67
2023-01-03T11:26:45.577Z,17.20
2023-01-03T11:29:27.309Z,22.20
2023-01-03T11:31:57.153Z,15.73
2023-01-03T11:35:12.081Z,30.07
2023-01-03T11:37:29.291Z,28.20
2023-01-03T11:40:03.785Z,26.03
2023-01-03T11:42:41.974Z,27.90
2023-01-03T11:45:28.585Z,14.53
2023-01-03T11:48:02.366Z,22.17
2023-01-03T11:50:38.231Z,24.60
2023-01-03T11:53:11.087Z,25.47
2023-01-03T11:55:44.736Z,19.20
2023-01-03T11:58:34.256Z,15.70
2023-01-03T12:01:04.895Z,15.87
2023-01-03T12:03:37.275Z,20.60
2023-01-03T12:06:08.292Z,13.50
2023-01-03T12:08:42.836Z,10.00
2023-01-03T12:11:37.078Z,12.50
2023-01-03T12:14:07.473Z,11.67
2023-01-03T12:16:37.626Z,10.73
2023-01-03T12:19:12.194Z,8.70
2023-01-03T12:21:44.314Z,6.33
2023-01-03T12:24:14.967Z,8.03
2023-01-03T12:26:43.601Z,8.77
2023-01-03T12:29:14.265Z,11.13
2023-01-03T12:31:44.881Z,8.77
2023-01-03T12:34:19.518Z,10.50
2023-01-03T12:36:52.331Z,11.10
2023-01-03T12:39:34.509Z,8.70
2023-01-03T12:42:05.833Z,10.77
2023-01-03T12:44:36.649Z,8.67
2023-01-03T12:47:05.635Z,7.03
2023-01-03T12:49:34.798Z,5.13
2023-01-03T12:52:04.545Z,8.57
2023-01-03T12:54:38.702Z,9.37
2023-01-03T12:57:14.249Z,8.77
2023-01-03T13:00:06.095Z,8.03
2023-01-03T13:02:41.923Z,5.13
2023-01-03T13:05:16.018Z,6.57
2023-01-03T13:07:47.841Z,5.00
2023-01-03T13:10:17.802Z,3.93
2023-01-03T13:12:48.725Z,6.43
2023-01-03T13:15:18.178Z,4.33
2023-01-03T13:17:46.943Z,5.00
2023-01-03T13:20:36.646Z,3.00
2023-01-03T13:23:30.754Z,3.07
2023-01-03T13:26:18.198Z,2.77
2023-01-03T13:28:46.102Z,2.00
2023-01-03T13:31:38.176Z,1.03
2023-01-03T13:34:36.894Z,2.63
2023-01-03T13:37:18.210Z,3.40
2023-01-03T13:40:06.006Z,1.27
2023-01-03T13:42:37.352Z,3.30
2023-01-03T13:45:54.254Z,4.40
2023-01-03T13:48:32.905Z,1.27
2023-01-03T13:51:36.854Z,0.83
2023-01-03T13:54:07.234Z,4.40
2023-01-03T13:57:02.563Z,0.70
2023-01-03T13:59:34.411Z,0.97
2023-01-03T14:02:24.805Z,2.00
2023-01-03T14:05:06.613Z,3.27
2023-01-03T14:08:03.044Z,3.63
2023-01-03T14:10:41.919Z,1.97
2023-01-03T14:13:41.553Z,1.33
2023-01-03T14:16:39.498Z,3.60
2023-01-03T14:19:08.633Z,1.73
2023-01-03T14:21:42.776Z,2.00
2023-01-03T14:24:17.111Z,0.93
2023-01-03T14:26:45.133Z,2.27
2023-01-03T14:29:23.684Z,4.23
2023-01-03T14:31:53.461Z,4.77
2023-01-03T14:34:28.728Z,2.10
2023-01-03T14:37:04.863Z,3.20
2023-01-03T14:42:03.401Z,3.33
2023-01-03T14:44:32.727Z,1.70
2023-01-03T14:47:04.000Z,3.70
2023-01-03T14:49:37.294Z,1.40
2023-01-03T14:52:07.737Z,1.37
2023-01-03T14:54:36.257Z,1.87
2023-01-03T14:57:05.538Z,4.17
2023-01-03T14:59:35.239Z,1.73
2023-01-03T15:02:03.362Z,1.80
2023-01-03T15:04:31.486Z,9.27
2023-01-03T15:07:06.326Z,2.80
2023-01-03T15:09:39.155Z,3.80
2023-01-03T15:12:07.237Z,4.70
2023-01-03T15:14:39.091Z,1.40
2023-01-03T15:17:09.582Z,3.50
2023-01-03T15:19:37.830Z,1.03
2023-01-03T15:22:14.004Z,2.57
2023-01-03T15:24:43.405Z,1.30
2023-01-03T15:27:34.136Z,1.13
2023-01-03T15:30:22.326Z,1.00
2023-01-03T15:32:51.558Z,2.43
2023-01-03T15:35:23.513Z,1.30
2023-01-03T15:37:54.727Z,2.07
2023-01-03T15:40:22.635Z,9.30
2023-01-03T15:43:07.863Z,4.27
2023-01-03T15:45:41.622Z,2.80
2023-01-03T15:48:14.128Z,3.37
2023-01-03T15:50:43.617Z,7.33
2023-01-03T15:53:23.939Z,7.50
2023-01-03T15:55:52.906Z,18.17
2023-01-03T15:58:20.843Z,10.97
2023-01-03T16:00:50.154Z,14.07
2023-01-03T16:03:18.807Z,7.23
2023-01-03T16:05:46.842Z,6.23
2023-01-03T16:08:27.722Z,6.37
2023-01-03T16:10:55.670Z,6.57
2023-01-03T16:13:24.451Z,24.43
2023-01-03T16:15:53.797Z,10.60
2023-01-03T16:18:23.918Z,7.73
2023-01-03T16:20:51.868Z,21.20
2023-01-03T16:23:25.138Z,18.20
2023-01-03T16:25:53.047Z,18.73
2023-01-03T16:28:23.792Z,16.60
2023-01-03T16:31:01.956Z,20.60
2023-01-03T16:33:33.612Z,7.70
2023-01-03T16:36:01.854Z,6.30
2023-01-03T16:38:30.163Z,5.87
2023-01-03T16:40:58.200Z,7.80
2023-01-03T16:43:27.263Z,7.87
2023-01-03T16:45:55.843Z,10.17
2023-01-03T16:48:25.377Z,17.20
2023-01-03T16:50:54.021Z,17.27
2023-01-03T16:53:26.500Z,10.37
2023-01-03T16:55:56.359Z,13.00
2023-01-03T16:58:25.423Z,18.77
2023-01-03T17:00:54.100Z,16.20
2023-01-03T17:03:22.453Z,16.43
2023-01-03T17:05:52.147Z,12.43
2023-01-03T17:08:24.265Z,11.27
2023-01-03T17:10:53.172Z,8.30
2023-01-03T17:13:29.759Z,7.10
2023-01-03T17:15:57.912Z,6.20
2023-01-03T17:18:27.118Z,10.60
2023-01-03T17:21:00.667Z,18.10
2023-01-03T17:23:28.923Z,17.90
2023-01-03T17:25:57.221Z,6.47
2023-01-03T17:28:25.182Z,16.00
2023-01-03T17:30:56.730Z,11.60
2023-01-03T17:33:33.768Z,14.43
2023-01-03T17:36:03.791Z,12.03
2023-01-03T17:38:31.690Z,12.00
2023-01-03T17:40:59.634Z,14.13
2023-01-03T17:43:28.393Z,15.20
2023-01-03T17:46:22.643Z,15.33
2023-01-03T17:49:09.060Z,5.57
2023-01-03T17:51:38.951Z,8.50
2023-01-03T17:54:07.020Z,14.73
2023-01-03T17:56:34.991Z,13.73
2023-01-03T17:59:04.832Z,22.30
2023-01-03T18:01:34.363Z,20.60
2023-01-03T18:04:02.535Z,24.43
2023-01-03T18:06:30.749Z,14.50
2023-01-03T18:09:00.563Z,19.37
2023-01-03T18:11:28.673Z,23.70
2023-01-03T18:13:56.630Z,22.07
2023-01-03T18:16:24.798Z,18.73
2023-01-03T18:18:53.124Z,20.40
2023-01-03T18:21:22.679Z,29.17
2023-01-03T18:23:56.325Z,10.50
2023-01-03T18:26:27.441Z,17.73
2023-01-03T18:28:55.401Z,16.77
2023-01-03T18:31:23.420Z,20.03
2023-01-03T18:33:51.474Z,16.40
2023-01-03T18:36:26.731Z,24.17
2023-01-03T18:39:00.158Z,45.43
2023-01-03T18:41:33.365Z,33.77
2023-01-03T18:44:01.768Z,38.80
2023-01-03T18:46:29.841Z,48.70
2023-01-03T18:48:58.080Z,42.83
2023-01-03T18:51:28.670Z,56.57
2023-01-03T18:53:57.774Z,56.03
2023-01-03T18:56:32.594Z,57.20
2023-01-03T18:59:02.741Z,60.30
2023-01-03T19:01:31.576Z,44.40
2023-01-03T19:04:00.049Z,52.13
2023-01-03T19:06:30.655Z,64.13
2023-01-03T19:09:00.438Z,52.70
2023-01-03T19:11:30.438Z,64.83
2023-01-03T19:14:01.180Z,48.83
2023-01-03T19:16:30.171Z,42.27
2023-01-03T19:18:58.210Z,60.33
2023-01-03T19:21:27.412Z,70.77
2023-01-03T19:23:59.082Z,72.53
2023-01-03T19:26:29.547Z,56.03
2023-01-03T19:29:01.795Z,56.23
2023-01-03T19:31:30.304Z,39.47
2023-01-03T19:33:58.271Z,65.37
2023-01-03T19:36:26.257Z,72.47
2023-01-03T19:38:54.173Z,50.13
2023-01-03T19:41:22.062Z,69.87
2023-01-03T19:43:50.174Z,50.77
2023-01-03T19:46:19.612Z,34.30
2023-01-03T19:48:47.547Z,52.27
2023-01-03T19:51:15.471Z,50.13
2023-01-03T19:53:43.413Z,50.73
2023-01-03T19:56:22.521Z,34.60
2023-01-03T19:58:50.528Z,48.27
2023-01-03T20:01:20.415Z,35.43
2023-01-03T20:03:49.060Z,30.83
2023-01-03T20:06:18.645Z,47.97
2023-01-03T20:08:46.879Z,32.97
2023-01-03T20:11:16.640Z,26.37
2023-01-03T20:13:45.147Z,39.70
2023-01-03T20:16:13.217Z,42.90
2023-01-03T20:18:43.403Z,46.10
2023-01-03T20:21:22.126Z,43.73
2023-01-03T20:23:51.877Z,49.73
2023-01-03T20:26:23.681Z,32.60
2023-01-03T20:28:51.811Z,63.00
2023-01-03T20:31:20.759Z,56.20
2023-01-03T20:33:50.684Z,55.07
2023-01-03T20:36:23.042Z,58.03
2023-01-03T20:38:52.406Z,41.53
2023-01-03T20:41:20.537Z,53.67
2023-01-03T20:43:50.310Z,57.67
2023-01-03T20:46:19.987Z,44.53
2023-01-03T20:48:51.363Z,53.17
2023-01-03T20:51:19.459Z,37.60
2023-01-03T20:53:53.905Z,41.70
2023-01-03T20:56:22.534Z,30.73
2023-01-03T20:58:51.677Z,46.47
2023-01-03T21:01:19.681Z,40.00
2023-01-03T21:03:47.896Z,50.23
2023-01-03T21:06:19.685Z,47.30
2023-01-03T21:08:57.208Z,51.27
2023-01-03T21:11:25.930Z,46.07
2023-01-03T21:13:54.252Z,40.40
2023-01-03T21:16:32.105Z,40.40
2023-01-03T21:19:05.451Z,26.17
2023-01-03T21:21:35.256Z,37.30
2023-01-03T21:24:04.812Z,26.20
2023-01-03T21:26:32.708Z,26.80
2023-01-03T21:29:00.828Z,35.60
2023-01-03T21:31:28.831Z,34.80
2023-01-03T21:33:56.789Z,31.07
2023-01-03T21:36:25.912Z,24.90
2023-01-03T21:38:55.192Z,31.37
2023-01-03T21:41:24.193Z,20.73
2023-01-03T21:43:55.420Z,37.00
2023-01-03T21:46:23.369Z,35.40
2023-01-03T21:48:51.291Z,25.70
2023-01-03T21:51:33.163Z,31.77
2023-01-03T21:54:07.404Z,37.10
2023-01-03T21:56:37.609Z,35.80
2023-01-03T21:59:05.524Z,28.17
2023-01-03T22:01:53.488Z,25.43
2023-01-03T22:04:20.498Z,32.37
2023-01-03T22:06:48.476Z,16.20
2023-01-03T22:09:31.646Z,22.97
2023-01-03T22:11:59.551Z,28.80
2023-01-03T22:14:27.480Z,33.30
2023-01-03T22:16:55.604Z,31.53
2023-01-03T22:19:24.225Z,21.53
2023-01-03T22:21:55.513Z,50.87
2023-01-03T22:24:28.624Z,39.30
2023-01-03T22:27:00.595Z,43.80
2023-01-03T22:29:28.899Z,16.43
2023-01-03T22:32:00.053Z,21.43
2023-01-03T22:34:28.632Z,40.93
2023-01-03T22:36:56.532Z,43.97
2023-01-03T22:39:25.997Z,24.10
2023-01-03T22:41:53.883Z,28.93
2023-01-03T22:44:21.793Z,26.60
2023-01-03T22:46:50.017Z,36.97
2023-01-03T22:49:19.042Z,54.27
2023-01-03T22:51:47.490Z,38.23
2023-01-03T22:54:18.543Z,30.07
2023-01-03T22:56:53.079Z,16.10
2023-01-03T22:59:21.470Z,27.83
2023-01-03T23:01:56.246Z,27.53
2023-01-03T23:04:29.224Z,31.10
2023-01-03T23:06:57.156Z,38.83
2023-01-03T23:09:26.656Z,26.60
2023-01-03T23:12:13.854Z,31.17
2023-01-03T23:14:42.029Z,41.97
2023-01-03T23:17:27.137Z,22.03
2023-01-03T23:19:55.016Z,37.27
2023-01-03T23:22:22.859Z,33.53
2023-01-03T23:24:50.775Z,42.00
2023-01-03T23:27:20.075Z,53.93
2023-01-03T23:29:48.017Z,33.87
2023-01-03T23:32:15.974Z,48.13
2023-01-03T23:34:43.862Z,23.27
2023-01-03T23:37:11.769Z,37.97
2023-01-03T23:39:40.086Z,22.87
2023-01-03T23:42:08.002Z,34.70
2023-01-03T23:44:37.299Z,34.00
2023-01-03T23:47:11.360Z,37.70
2023-01-03T23:49:40.061Z,43.87
2023-01-03T23:52:08.600Z,23.43
2023-01-03T23:54:39.689Z,28.57
2023-01-03T23:57:07.695Z,35.60
2023-01-03T23:59:37.012Z,39.67
